world map with ZIG marked

ZIG - Airport

This information may not be accurate or current and is not valid for navigation or flight planning. No warranty of fitness for any purpose is made or implied.

flag of Senegal

Donate via PayPal

Additional information is available on the NEW Great Circle Mapper

Location
City:  Ziguinchor, Ziguinchor, Senegal
Name:Ziguinchor Airport
ICAO / IATA:GOGG / ZIG

Details
Type:Airport (Aerodrome, Airfield)
Use:Public/Civil
Latitude:12°33'20"N (12.555617)
Longitude:16°16'54"W (-16.281782)
Datum:WGS 1984
Elevation:75 ft (23 m)
Runways:1
Longest:5069 × 98 ft (1545 × 30 m)

Time
Timezone:UTC+0 (DST+2)
Local Time:

Weather
METAR:GOGG  041400Z 04006KT CAVOK 35/10 Q1012
TAF:GOGG  (expired)

Related Locations
Nearby:
Farthest:NNB: 12290 mi / 19779 km
Santa Ana Island (Owaraha, Ghupuna) [Santa Ana Airport], MK, SB

Find:

   beyond  
but within

Other Information
Maps:
Sources:

  


 


Great Circle Mapper   Great Circle Mapper
Great Circle Mapper FAQ   Great Circle Mapper FAQ
  Karl's Home Page
KLSē   KLSē Home
   GC on Facebook
Airlines of the World   Airlines of the World
Donate via PayPal


Copyright © 2004-2019, Karl L. Swartz. All rights reserved.
All trademarks mentioned herein belong to their respective owners.

Please see credits for attribution and copyright information.

Karl Swartz <karl@kls2.com>
  Powered by FreeBSD
Valid HTML 4.01!
Labeled with ICRA
hCard Microformat
Geo Microformat